createdAt,value
2022-11-28T10:07:55.190Z,19.33
2022-11-28T10:11:05.472Z,20.05
2022-11-28T10:14:51.461Z,18.60
2022-11-28T10:18:10.694Z,20.13
2022-11-28T10:21:33.637Z,17.80
2022-11-28T10:24:54.135Z,19.58
2022-11-28T10:27:59.133Z,20.30
2022-11-28T10:31:33.040Z,19.65
2022-11-28T10:35:09.307Z,20.13
2022-11-28T10:38:16.202Z,17.37
2022-11-28T10:42:12.255Z,21.83
2022-11-28T10:45:49.045Z,18.60
2022-11-28T10:49:01.589Z,20.83
2022-11-28T10:52:21.351Z,17.55
2022-11-28T10:55:27.096Z,17.87
2022-11-28T10:59:04.147Z,20.35
2022-11-28T11:02:30.153Z,21.48
2022-11-28T11:05:36.318Z,20.38
2022-11-28T11:08:41.158Z,20.13
2022-11-28T11:11:57.779Z,21.50
2022-11-28T11:15:19.607Z,18.55
2022-11-28T11:18:28.576Z,20.73
2022-11-28T11:21:34.554Z,18.45
2022-11-28T11:24:37.534Z,17.83
2022-11-28T11:27:57.455Z,19.33
2022-11-28T11:31:03.258Z,19.77
2022-11-28T11:34:15.649Z,21.65
2022-11-28T11:37:39.117Z,20.08
2022-11-28T11:40:42.162Z,17.30
2022-11-28T11:43:45.124Z,20.53
2022-11-28T11:47:05.416Z,22.27
2022-11-28T11:50:21.121Z,21.92
2022-11-28T11:53:24.138Z,19.13
2022-11-28T11:56:30.759Z,19.60
2022-11-28T11:59:47.689Z,18.83
2022-11-28T12:02:58.602Z,18.73
2022-11-28T12:06:14.525Z,19.73
2022-11-28T12:09:34.530Z,21.20
2022-11-28T12:12:38.316Z,18.50
2022-11-28T12:16:11.422Z,19.57
2022-11-28T12:19:23.349Z,19.38
2022-11-28T12:23:09.974Z,17.73
2022-11-28T12:26:40.073Z,15.40
2022-11-28T12:30:12.792Z,16.17
2022-11-28T12:33:24.722Z,17.30
2022-11-28T12:36:41.701Z,17.35
2022-11-28T12:39:56.030Z,19.55
2022-11-28T12:43:04.842Z,19.98
2022-11-28T12:46:27.866Z,20.65
2022-11-28T12:49:43.659Z,19.43
2022-11-28T12:53:02.437Z,18.40
2022-11-28T12:56:24.254Z,18.00
2022-11-28T12:59:56.567Z,19.83
2022-11-28T13:03:38.251Z,20.25
2022-11-28T13:07:11.650Z,21.83
2022-11-28T13:10:37.747Z,23.20
2022-11-28T13:14:01.925Z,20.60
2022-11-28T13:17:35.989Z,18.10
2022-11-28T13:21:17.861Z,20.80
2022-11-28T13:24:32.083Z,20.87
2022-11-28T13:27:49.961Z,19.33
2022-11-28T13:31:11.330Z,23.58
2022-11-28T13:34:17.653Z,21.45
2022-11-28T13:41:28.510Z,21.60
2022-11-28T13:44:59.451Z,24.45
2022-11-28T13:52:21.800Z,23.50
2022-11-28T13:55:40.838Z,24.15
2022-11-28T13:58:46.728Z,23.47
2022-11-28T14:02:00.050Z,23.70
2022-11-28T14:05:04.627Z,23.83
2022-11-28T14:08:08.169Z,22.88
2022-11-28T14:11:27.714Z,24.90
2022-11-28T14:15:04.045Z,24.03
2022-11-28T14:18:55.025Z,23.40
2022-11-28T14:21:57.535Z,21.48
2022-11-28T14:25:13.959Z,17.67
2022-11-28T14:28:37.047Z,16.83
2022-11-28T14:31:40.532Z,16.13
2022-11-28T14:34:49.106Z,16.35
2022-11-28T14:37:55.620Z,17.80
2022-11-28T14:41:01.643Z,20.75
2022-11-28T14:45:08.388Z,18.88
2022-11-28T14:48:19.603Z,18.20
2022-11-28T14:51:45.834Z,16.50
2022-11-28T14:54:51.118Z,19.67
2022-11-28T14:57:53.892Z,16.38
2022-11-28T15:01:00.252Z,18.75
2022-11-28T15:04:08.683Z,17.00
2022-11-28T15:07:44.002Z,19.02
2022-11-28T15:10:55.207Z,19.73
2022-11-28T15:14:22.595Z,20.23
2022-11-28T15:17:32.654Z,18.95
2022-11-28T15:20:48.728Z,19.10
2022-11-28T15:23:53.040Z,18.67
2022-11-28T15:27:18.093Z,21.83
2022-11-28T15:30:26.575Z,20.30
2022-11-28T15:33:30.633Z,17.45
2022-11-28T15:36:33.635Z,17.87
2022-11-28T15:39:40.127Z,19.00
2022-11-28T15:42:48.023Z,20.33
2022-11-28T15:45:54.341Z,19.88
2022-11-28T15:48:57.943Z,20.95
2022-11-28T15:52:03.942Z,19.33
2022-11-28T15:55:20.511Z,21.92
2022-11-28T15:58:31.745Z,20.38
2022-11-28T16:01:35.705Z,20.63
2022-11-28T16:04:40.264Z,18.90
2022-11-28T16:07:45.024Z,22.10
2022-11-28T16:10:48.503Z,24.35
2022-11-28T16:13:53.569Z,23.85
2022-11-28T16:17:02.096Z,22.98
2022-11-28T16:20:05.885Z,21.65
2022-11-28T16:23:30.613Z,20.40
2022-11-28T16:26:35.835Z,19.48
2022-11-28T16:29:45.589Z,20.65
2022-11-28T16:32:50.169Z,26.52
2022-11-28T16:35:53.363Z,29.77
2022-11-28T16:39:11.879Z,33.43
2022-11-28T16:42:17.500Z,35.25
2022-11-28T16:45:22.641Z,38.20
2022-11-28T16:48:35.971Z,37.78
2022-11-28T16:51:41.360Z,37.78
2022-11-28T16:54:44.585Z,36.70
2022-11-28T16:57:47.727Z,31.48
2022-11-28T17:00:59.469Z,30.85
2022-11-28T17:04:03.101Z,30.40
2022-11-28T17:07:09.618Z,30.80
2022-11-28T17:10:13.537Z,30.57
2022-11-28T17:13:17.566Z,27.88
2022-11-28T17:16:22.798Z,30.20
2022-11-28T17:19:25.821Z,27.30
2022-11-28T17:22:40.914Z,29.20
2022-11-28T17:25:44.237Z,29.13
2022-11-28T17:28:47.255Z,27.40
2022-11-28T17:31:50.478Z,26.90
2022-11-28T17:34:53.405Z,26.35
2022-11-28T17:37:56.335Z,24.92
2022-11-28T17:41:02.075Z,23.67
2022-11-28T17:44:05.588Z,23.95
2022-11-28T17:47:08.446Z,23.70
2022-11-28T17:50:12.039Z,26.42
2022-11-28T17:53:18.787Z,29.77
2022-11-28T17:56:22.044Z,25.67
2022-11-28T17:59:27.090Z,25.90
2022-11-28T18:02:30.080Z,24.55
2022-11-28T18:05:37.794Z,23.83
2022-11-28T18:08:40.968Z,24.13
2022-11-28T18:11:46.462Z,26.77
2022-11-28T18:14:49.701Z,25.30
2022-11-28T18:17:54.747Z,22.63
2022-11-28T18:20:58.785Z,21.88
2022-11-28T18:24:02.372Z,21.95
2022-11-28T18:27:06.685Z,22.67
2022-11-28T18:30:10.571Z,23.88
2022-11-28T18:33:14.927Z,22.88
2022-11-28T18:36:21.234Z,22.20
2022-11-28T18:39:24.646Z,22.52
2022-11-28T18:42:27.673Z,26.97
2022-11-28T18:45:31.296Z,25.67
2022-11-28T18:48:37.155Z,23.35
2022-11-28T18:51:40.716Z,27.95
2022-11-28T18:54:44.984Z,22.02
2022-11-28T18:57:48.393Z,22.93
2022-11-28T19:00:51.213Z,31.77
2022-11-28T19:03:57.238Z,26.63
2022-11-28T19:07:01.753Z,21.58
2022-11-28T19:10:06.915Z,20.92
2022-11-28T19:13:10.202Z,23.23
2022-11-28T19:16:20.187Z,24.75
2022-11-28T19:19:24.129Z,23.95
2022-11-28T19:22:27.496Z,24.73
2022-11-28T19:25:31.887Z,29.13
2022-11-28T19:28:36.866Z,29.00
2022-11-28T19:31:42.042Z,23.08
2022-11-28T19:34:45.648Z,24.85
2022-11-28T19:37:49.508Z,22.88
2022-11-28T19:40:52.719Z,26.23
2022-11-28T19:43:56.175Z,22.70
2022-11-28T19:46:59.451Z,26.58
2022-11-28T19:50:04.769Z,28.27
2022-11-28T19:53:08.292Z,24.38
2022-11-28T19:56:15.383Z,26.13
2022-11-28T19:59:20.060Z,29.57
2022-11-28T20:02:23.681Z,25.08
2022-11-28T20:05:27.066Z,32.70
2022-11-28T20:08:30.398Z,29.05
2022-11-28T20:11:35.555Z,32.15
2022-11-28T20:14:39.827Z,28.33
2022-11-28T20:17:43.171Z,25.65
2022-11-28T20:20:46.291Z,25.77
2022-11-28T20:23:53.614Z,29.70
2022-11-28T20:26:57.542Z,31.50
2022-11-28T20:30:03.223Z,26.43
2022-11-28T20:33:06.644Z,29.95
2022-11-28T20:36:13.785Z,30.88
2022-11-28T20:39:16.956Z,28.17
2022-11-28T20:42:20.545Z,35.75
2022-11-28T20:45:23.744Z,19.67
2022-11-28T20:48:28.233Z,32.15
2022-11-28T20:51:33.438Z,29.42
2022-11-28T20:54:36.585Z,23.52
2022-11-28T20:57:40.125Z,27.45
2022-11-28T21:00:43.067Z,23.27
2022-11-28T21:03:46.735Z,24.85
2022-11-28T21:06:50.206Z,25.83
2022-11-28T21:10:00.104Z,23.40
2022-11-28T21:13:03.196Z,25.20
2022-11-28T21:16:08.551Z,24.43
2022-11-28T21:19:13.056Z,22.70
2022-11-28T21:22:16.147Z,24.63
2022-11-28T21:25:19.098Z,24.73
2022-11-28T21:28:22.040Z,24.98
2022-11-28T21:31:28.355Z,23.87
2022-11-28T21:34:31.570Z,24.90
2022-11-28T21:37:34.480Z,23.92
2022-11-28T21:40:37.385Z,24.40
2022-11-28T21:43:40.214Z,24.02
2022-11-28T21:46:43.379Z,22.20
2022-11-28T21:49:47.590Z,20.80
2022-11-28T21:52:50.541Z,22.67
2022-11-28T21:55:55.387Z,23.90
2022-11-28T21:58:58.590Z,20.85
2022-11-28T22:02:01.599Z,20.93
2022-11-28T22:05:05.057Z,22.02
2022-11-28T22:08:08.366Z,21.88
2022-11-28T22:11:13.479Z,21.75
2022-11-28T22:14:16.650Z,21.27
2022-11-28T22:17:19.460Z,22.07
2022-11-28T22:20:22.289Z,22.33
2022-11-28T22:23:25.228Z,23.00
2022-11-28T22:26:28.645Z,21.20
2022-11-28T22:29:31.719Z,21.80
2022-11-28T22:32:34.617Z,21.93
2022-11-28T22:35:37.473Z,20.92
2022-11-28T22:38:41.900Z,21.20
2022-11-28T22:41:44.931Z,20.77
2022-11-28T22:44:48.658Z,20.65
2022-11-28T22:47:51.625Z,18.90
2022-11-28T22:50:54.519Z,20.77
2022-11-28T22:53:59.509Z,21.48
2022-11-28T22:57:03.431Z,20.85
2022-11-28T23:00:09.401Z,21.23
2022-11-28T23:03:12.525Z,19.53
2022-11-28T23:06:19.617Z,20.70
2022-11-28T23:09:22.502Z,20.33
2022-11-28T23:12:26.114Z,20.75
2022-11-28T23:15:29.133Z,20.52
2022-11-28T23:18:33.204Z,20.00
2022-11-28T23:21:38.215Z,22.23
2022-11-28T23:24:41.115Z,44.60
2022-11-28T23:27:44.106Z,23.60
2022-11-28T23:30:47.132Z,23.77
2022-11-28T23:33:50.580Z,22.07
2022-11-28T23:36:54.154Z,21.60
2022-11-28T23:39:57.055Z,23.10
2022-11-28T23:43:00.052Z,20.52
2022-11-28T23:46:03.498Z,20.33
2022-11-28T23:49:07.294Z,21.17
2022-11-28T23:52:10.295Z,20.35
2022-11-28T23:55:13.211Z,21.80
2022-11-28T23:58:16.248Z,21.45
